KGCY/GCY METAR and TAF weather

Enter ICAO airport designator
Station Type Date Time Source
KGCY METAR 2024/04/15 10:15 UTC NOAA

KGCY 151015Z AUTO 00000KT 10SM CLR 16/07 A3003 RMK A01


Station Type Date Time Source
KGCY Decoded METAR 2024/04/15 10:15 UTC NOAA

Station name not available
Apr 15, 2024 - 06:15 AM EDT / 2024.04.15 1015 UTC
Wind: Calm:0
Visibility: 10 mile(s):0
Sky conditions: clear
Temperature: 60 F (16 C)
Dew Point: 44 F (7 C)
Relative Humidity: 55%
Pressure (altimeter): 30.03 in. Hg (1016 hPa)
ob: KGCY 151015Z AUTO 00000KT 10SM CLR 16/07 A3003 RMK A01
cycle: 10

Station Type Date Time Source
KGCY TAF UTC NOAA

Error!

Example: see airport list